^^
Weerstation Beverwaard
 
Daily Summary for October 22, 2018 Units:  Both    English   Metric

Notice: Undefined index: PHPSELF in C:\OpenGrADS\Contents\tmp\WU-History-inc.php on line 388
Daily Weekly Monthly Yearly Custom

Warning: Division by zero in C:\OpenGrADS\Contents\tmp\WU-History-inc.php on line 1269

Notice: Undefined variable: return in C:\OpenGrADS\Contents\tmp\WU-History-inc.php on line 1290
  Current: High: Low: Average:
Temperature: 56.7 °F /  13.7 °C 57.2 °F /  14.0 °C 54.7 °F /  12.6 °C 56.3 °F /  13.5 °C
Dew Point: 53.8 °F /  12.1 °C 55.2 °F /  12.9 °C 49.3 °F /  9.6 °C 52.7 °F /  11.5 °C
Humidity: 90% 93% 82% 88%
Wind Speed: 0mph /  0.0km/h 0mph /  0.0km/h - 0mph /  0km/h
Wind Gust: 0mph /  0.0km/h 0mph /  0.0km/h - -
Wind Calm - -
Pressure: 30.3 in /  1027.2 hPa 30.3 in /  1027.2 hPa 30.3 in /  1026.2 hPa -
Precipitation: 0 in /  0.0 mm      
Historical Graphs
 
 
Tabular Data for October 22, 2018
Time Temperature Dew Point Pressure Wind Wind Speed Wind Gust Humidity Rainfall Rate (Hourly) solar Conditions
00:04 54.7 °F /  12.6 °C 49.3 °F /  9.6 °C 30.3in /  1026.2hPa Calm     82% 0in /  0.0mm 0.00 W/m2 OVC
00:09 54.7 °F /  12.6 °C 49.3 °F /  9.6 °C 30.3in /  1026.2hPa Calm     82% 0in /  0.0mm 0.00 W/m2 OVC
00:14 54.7 °F /  12.6 °C 49.6 °F /  9.8 °C 30.3in /  1026.2hPa Calm     83% 0in /  0.0mm 0.00 W/m2 OVC
00:19 54.9 °F /  12.7 °C 49.6 °F /  9.8 °C 30.3in /  1026.2hPa Calm     83% 0in /  0.0mm 0.00 W/m2 OVC
00:24 54.9 °F /  12.7 °C 49.8 °F /  9.9 °C 30.3in /  1026.2hPa Calm     83% 0in /  0.0mm 0.00 W/m2 OVC
00:29 55 °F /  12.8 °C 50 °F /  10.0 °C 30.3in /  1026.2hPa Calm     83% 0in /  0.0mm 0.00 W/m2 OVC
00:34 55.2 °F /  12.9 °C 50.2 °F /  10.1 °C 30.3in /  1026.2hPa Calm     83% 0in /  0.0mm 0.00 W/m2 BKN
00:39 55.2 °F /  12.9 °C 50.2 °F /  10.1 °C 30.3in /  1026.3hPa Calm     83% 0in /  0.0mm 0.00 W/m2 BKN
00:44 55.2 °F /  12.9 °C 50.2 °F /  10.1 °C 30.3in /  1026.3hPa Calm     83% 0in /  0.0mm 0.00 W/m2 BKN
00:49 55.2 °F /  12.9 °C 50.2 °F /  10.1 °C 30.3in /  1026.4hPa Calm     83% 0in /  0.0mm 0.00 W/m2 BKN
00:54 55.4 °F /  13.0 °C 50.4 °F /  10.2 °C 30.3in /  1026.4hPa Calm     83% 0in /  0.0mm 0.00 W/m2 BKN
00:59 55.4 °F /  13.0 °C 50.4 °F /  10.2 °C 30.3in /  1026.3hPa Calm     83% 0in /  0.0mm 0.00 W/m2 BKN
01:04 55.6 °F /  13.1 °C 50.7 °F /  10.4 °C 30.3in /  1026.3hPa Calm     84% 0in /  0.0mm 0.00 W/m2 OVC
01:09 55.6 °F /  13.1 °C 50.7 °F /  10.4 °C 30.3in /  1026.3hPa Calm     84% 0in /  0.0mm 0.00 W/m2 OVC
01:14 55.8 °F /  13.2 °C 50.9 °F /  10.5 °C 30.3in /  1026.4hPa Calm     84% 0in /  0.0mm 0.00 W/m2 OVC
01:19 55.8 °F /  13.2 °C 51.1 °F /  10.6 °C 30.3in /  1026.4hPa Calm     84% 0in /  0.0mm 0.00 W/m2 OVC
01:24 55.8 °F /  13.2 °C 51.1 °F /  10.6 °C 30.3in /  1026.3hPa Calm     84% 0in /  0.0mm 0.00 W/m2 OVC
01:29 55.9 °F /  13.3 °C 51.1 °F /  10.6 °C 30.3in /  1026.3hPa Calm     84% 0in /  0.0mm 0.00 W/m2 OVC
01:34 55.9 °F /  13.3 °C 51.4 °F /  10.8 °C 30.3in /  1026.4hPa Calm     85% 0in /  0.0mm 0.00 W/m2 OVC
01:39 55.9 °F /  13.3 °C 51.6 °F /  10.9 °C 30.3in /  1026.4hPa Calm     85% 0in /  0.0mm 0.00 W/m2 OVC
01:44 55.9 °F /  13.3 °C 51.6 °F /  10.9 °C 30.3in /  1026.4hPa Calm     85% 0in /  0.0mm 0.00 W/m2 OVC
01:49 55.9 °F /  13.3 °C 51.6 °F /  10.9 °C 30.3in /  1026.4hPa Calm     85% 0in /  0.0mm 0.00 W/m2 OVC
01:54 55.9 °F /  13.3 °C 51.6 °F /  10.9 °C 30.3in /  1026.4hPa Calm     85% 0in /  0.0mm 0.00 W/m2 OVC
01:59 56.1 °F /  13.4 °C 51.6 °F /  10.9 °C 30.3in /  1026.4hPa Calm     85% 0in /  0.0mm 0.00 W/m2 OVC
02:04 56.1 °F /  13.4 °C 52.2 °F /  11.2 °C 30.3in /  1026.4hPa Calm     86% 0in /  0.0mm 0.00 W/m2 -DZ
02:09 56.3 °F /  13.5 °C 52.5 °F /  11.4 °C 30.3in /  1026.4hPa Calm     87% 0in /  0.0mm 0.00 W/m2 -DZ
02:14 56.5 °F /  13.6 °C 53.1 °F /  11.7 °C 30.3in /  1026.4hPa Calm     88% 0in /  0.0mm 0.00 W/m2 -DZ
02:19 56.7 °F /  13.7 °C 53.4 °F /  11.9 °C 30.3in /  1026.4hPa Calm     89% 0in /  0.0mm 0.00 W/m2 -DZ
02:24 56.8 °F /  13.8 °C 54 °F /  12.2 °C 30.3in /  1026.4hPa Calm     90% 0in /  0.0mm 0.00 W/m2 -DZ
02:29 57 °F /  13.9 °C 54.1 °F /  12.3 °C 30.3in /  1026.4hPa Calm     90% 0in /  0.0mm 0.00 W/m2 -DZ
02:34 57 °F /  13.9 °C 54.5 °F /  12.5 °C 30.3in /  1026.4hPa Calm     91% 0in /  0.0mm 0.00 W/m2 OVC
02:39 57.2 °F /  14.0 °C 54.7 °F /  12.6 °C 30.3in /  1026.4hPa Calm     91% 0in /  0.0mm 0.00 W/m2 OVC
02:44 57 °F /  13.9 °C 54.5 °F /  12.5 °C 30.3in /  1026.4hPa Calm     91% 0in /  0.0mm 0.00 W/m2 OVC
02:49 57.2 °F /  14.0 °C 54.7 °F /  12.6 °C 30.3in /  1026.4hPa Calm     91% 0in /  0.0mm 0.00 W/m2 OVC
02:54 57 °F /  13.9 °C 54.9 °F /  12.7 °C 30.3in /  1026.4hPa Calm     92% 0in /  0.0mm 0.00 W/m2 OVC
02:59 57 °F /  13.9 °C 54.9 °F /  12.7 °C 30.3in /  1026.4hPa Calm     92% 0in /  0.0mm 0.00 W/m2 OVC
03:04 57 °F /  13.9 °C 54.9 °F /  12.7 °C 30.3in /  1026.4hPa Calm     92% 0in /  0.0mm 0.00 W/m2 BKN
03:09 57 °F /  13.9 °C 55 °F /  12.8 °C 30.3in /  1026.5hPa Calm     93% 0in /  0.0mm 0.00 W/m2 BKN
03:14 57 °F /  13.9 °C 55 °F /  12.8 °C 30.3in /  1026.6hPa Calm     93% 0in /  0.0mm 0.00 W/m2 BKN
03:19 57.2 °F /  14.0 °C 55.2 °F /  12.9 °C 30.3in /  1026.6hPa Calm     93% 0in /  0.0mm 0.00 W/m2 BKN
03:24 57.2 °F /  14.0 °C 55.2 °F /  12.9 °C 30.3in /  1026.7hPa Calm     93% 0in /  0.0mm 0.00 W/m2 BKN
03:29 57 °F /  13.9 °C 55 °F /  12.8 °C 30.3in /  1026.7hPa Calm     93% 0in /  0.0mm 0.00 W/m2 BKN
03:34 57 °F /  13.9 °C 55 °F /  12.8 °C 30.3in /  1026.8hPa Calm     93% 0in /  0.0mm 0.00 W/m2 OVC
03:39 57 °F /  13.9 °C 55 °F /  12.8 °C 30.3in /  1026.8hPa Calm     93% 0in /  0.0mm 0.00 W/m2 OVC
03:44 57 °F /  13.9 °C 55 °F /  12.8 °C 30.3in /  1026.8hPa Calm     93% 0in /  0.0mm 0.00 W/m2 OVC
03:49 57 °F /  13.9 °C 55 °F /  12.8 °C 30.3in /  1026.9hPa Calm     93% 0in /  0.0mm 0.00 W/m2 OVC
03:54 56.8 °F /  13.8 °C 54.9 °F /  12.7 °C 30.3in /  1027.0hPa Calm     93% 0in /  0.0mm 0.00 W/m2 OVC
03:59 56.8 °F /  13.8 °C 54.9 °F /  12.7 °C 30.3in /  1027.0hPa Calm     93% 0in /  0.0mm 0.00 W/m2 OVC
04:04 56.8 °F /  13.8 °C 54.5 °F /  12.5 °C 30.3in /  1027.0hPa Calm     92% 0in /  0.0mm 0.00 W/m2 BKN
04:09 56.8 °F /  13.8 °C 54.1 °F /  12.3 °C 30.3in /  1027.1hPa Calm     91% 0in /  0.0mm 0.00 W/m2 BKN
04:14 56.8 °F /  13.8 °C 54 °F /  12.2 °C 30.3in /  1027.1hPa Calm     90% 0in /  0.0mm 0.00 W/m2 BKN
04:19 56.8 °F /  13.8 °C 54 °F /  12.2 °C 30.3in /  1027.2hPa Calm     90% 0in /  0.0mm 0.00 W/m2 BKN
04:24 56.7 °F /  13.7 °C 53.8 °F /  12.1 °C 30.3in /  1027.2hPa Calm     90% 0in /  0.0mm 0.00 W/m2 BKN
Rotterdam Beverwaard Nederland
Compliments of Weather Underground - 2 mb